Racecast

Liam McInroy

Laramie (WY) · 12 · EASTWY D4A4A · Compare head to head

Athlete ratingi 124.5 2018 TF season
Best race 134.8 TF
Races 58
Seasons 5 2014 — 2018

RankedNation #5523·WY #24·WY D4A #13·EAST #9·Team #10 ?

Rating scale ?
Speed rating — all races

Cross Country

XC speed rating

2017 XC 126.9

Laramie (WY) · Grade 12

Date Meet Event Result Place Ratingi Difficultyi PR/SR Flags
2017-10-21 Sheridan VA Medical Center 5000m 16:48.2 8th · 3rd on team 125.8 +0.3% CSR
2017-10-13 Prairie View Golf Course 5000m 16:52.7 3rd · 3rd on team 124.7 -0.2% CSR
2017-09-29 Margaret W. Carpenter Recreation Center 5000m 16:37 18th · 3rd on team 125.6 -0.8% ★CR CSR
2017-09-22 Hart Ranch Camping Resort 5000m 16:37.1 5th · 3rd on team 128.3 +0.1% ★CR CSR
2017-09-08 Heritage High School 5000m 16:23 26th · 3rd on team 125.6 -2.3% SR CSR
2017-09-01 Rawlins High School 5000m 17:12.8 3rd · 3rd on team 128.4 +5.5% ★CR SR CSR
2017-08-25 Beartrap Meadow Park 5000m 17:39.7 2nd · 2nd on team 129.7 +7.7% ★CR SR CSR RSR

2016 XC 126.1

Laramie (WY) · Grade 11

Date Meet Event Result Place Ratingi Difficultyi PR/SR Flags
2016-10-22 Sheridan VA Medical Center 5000m 16:30.8 7th · 3rd on team 128.6 +0.3% CSR RSR
2016-10-14 Prairie View Golf Course 5000m 16:51.8 3rd · 3rd on team 125.2 -0.2% ★CR CSR
2016-09-30 Margaret W. Carpenter Recreation Center 5000m 16:42 16th · 3rd on team 125.9 -0.8% CR CSR
2016-09-17 Fort Collins High School 5000m 17:16 26th · 3rd on team 122.7 0.0% CSR
2016-09-09 Heritage High School 5000m 16:13 6th · 2nd on team 128.0 -2.3% ★PR ★CR SR CSR RSR

2015 XC 125.9

Laramie (WY) · Grade 10

Date Meet Event Result Place Ratingi Difficultyi PR/SR Flags
2015-11-14 Eagle Island State Park 5000m 17:02.4 85th · 5th on team 125.0 +0.4%
2015-10-24 Sheridan VA Medical Center 5000m 16:28.9 8th · 4th on team 127.1 +0.3% PR ★CR SR CSR
2015-10-02 Margaret W. Carpenter Recreation Center 5000m 16:51 10th · 2nd on team 125.0 -0.8% CR CSR
2015-09-26 Eagle Island State Park 5000m 16:50.7 79th · 2nd on team 126.4 +0.4% ★CR CSR
2015-09-18 Fort Collins High School 5000m 16:30.5 12th · 4th on team 127.2 0.0% PR ★CR SR CSR RSR
2015-09-11 Heritage High School 5000m 16:36 13th · 4th on team 124.5 -2.3% PR CR SR CSR
2015-08-28 Beartrap Meadow Park 5000m 17:49.7 4th · 2nd on team 126.1 +7.7% PR CR SR CSR RSR

2014 XC 117.8

Laramie (WY) · Grade 9

Date Meet Event Result Place Ratingi Difficultyi PR/SR Flags
2014-09-26 Robbinsdale Park 5000m 18:13.9 20th · 7th on team 118.9 +3.0% PR ★CR SR CSR RSR
2014-08-30 University of Wyoming 5000m 19:12.8 9th · 5th on team 116.6 +6.6% PR ★CR SR CSR RSR

Track & Field

TF speed rating

2018 TF 123.2

Laramie (WY) · Grade 12

Date Meet Event Result Place Ratingi Difficultyi PR/SR Flags
2018-05-18 WHSAAA State Championship 3200m 10:14.14 9th · 3rd on team 123.0 +2.3% SR
2018-05-11 WHSAA 4A East Regional 1600m 4:41.44 5th · 4th on team 126.6 +4.4% SR RSR
2018-05-11 WHSAA 4A East Regional 800m 2:02.41 6th · 3rd on team 129.5 +4.4% ★PR SR RSR
2018-05-11 WHSAA 4A East Regional 3200m 10:28.72 5th · 4th on team 122.7 +4.4% SR
2018-05-04 2018 Wiseman Invitational 1600m 4:45.71 2nd · 2nd on team 121.8 +2.2% SR
2018-05-04 2018 Wiseman Invitational 800m 2:05.55 1st · 1st on team 123.2 +2.2% PR SR RSR
2018-04-21 Cheyenne Central Invitational 3200m 10:32.19 2nd · 2nd on team 122.1 +4.4% SR RSR
2018-04-21 Cheyenne Central Invitational 1600m 4:54.5 1st · 1st on team 121.0 +4.4% SR
2018-03-23 Runners Roost of Fort Collins Invitational 800m 2:10.11 8th · 2nd on team 118.8 +2.0% SR RSR

2017 TF 120.6

Laramie (WY) · Grade 11

Date Meet Event Result Place Ratingi Difficultyi PR/SR Flags
2017-05-20 WY WHSAA State 4A Meet 3200m 10:21.52 11th · 4th on team 121.0 +2.3%
2017-05-20 WY WHSAA State 4A Meet 1600m 4:38.39 10th · 3rd on team 124.7 +2.3% ★PR SR RSR
2017-05-13 WHSAA 4A East Regional 1600m 4:42.5 6th · 3rd on team 123.1 +2.2% PR SR RSR
2017-05-13 WHSAA 4A East Regional 3200m 10:12.05 3rd · 3rd on team 123.7 +2.2% SR RSR
2017-05-13 WHSAA 4A East Regional 800m 2:06.95 11th · 4th on team 121.7 +2.2% PR SR
2017-04-22 Poudre Invitational 3200m 10:18.56 6th · 1st on team 121.7 +2.5% SR RSR
2017-04-22 Poudre Invitational 1600m 4:49.07 13th · 3rd on team 120.3 +2.5% SR
2017-04-13 South Twilight 1600m 5:02.3 3rd · 3rd on team 116.6 +3.3%
2017-04-13 South Twilight 200m 30.37 31st · 14th on team +3.3% ★PR SR
2017-04-07 Okie Blanchard Invitational 1600m 4:51.98 6th · 3rd on team 121.3 +4.1% SR RSR
2017-04-07 Okie Blanchard Invitational 800m 2:11.62 9th · 3rd on team 119.4 +4.1% PR SR
2017-04-01 Altitude Running Invitational 1600m 4:57.45 22nd · 3rd on team 117.0 +2.1% SR RSR
2017-04-01 Altitude Running Invitational 3200m 10:48.32 12th · 3rd on team 116.4 +2.1% SR

2016 TF 121.2

Laramie (WY) · Grade 10

Date Meet Event Result Place Ratingi Difficultyi PR/SR Flags
2016-05-21 WY WHSAA State 4A Meet 3200m 10:42.5 15th · 3rd on team 117.9 +2.3%
2016-05-13 4A East Regional 3200m 10:07.61 5th · 3rd on team 126.6 +4.1% ★PR SR RSR
2016-05-06 Wiseman Invitational 1600m 4:45.69 6th · 5th on team 121.4 +2.2% PR SR
2016-04-15 Natrona Invite 1600m 4:45.89 9th · 5th on team 122.8 +3.2% PR SR RSR
2016-04-15 Natrona Invite 3200m 10:29.34 1st · 1st on team 120.7 +3.2% PR SR
2016-04-08 Okie Blanch Invite 3200m 10:34.68 1st · 1st on team 120.7 +4.1% PR SR RSR
2016-04-08 Okie Blanch Invite 1600m 4:52.24 6th · 6th on team 120.7 +4.1% PR SR
2016-04-02 Altitude Running Invitational 3200m 10:37.35 13th · 2nd on team 118.6 +2.1% PR SR RSR

2015 TF 116.0

Laramie (WY) · Grade 9

Date Meet Event Result Place Ratingi Difficultyi PR/SR Flags
2015-05-01 DPS Viking Invitational 3200m 10:51.78 9th · 3rd on team 115.2 +2.0%
2015-04-24 LoboCat Roundup 3200m 10:42.62 18th · 3rd on team 117.4 +2.3% PR SR RSR
2015-04-10 Okie Blanchard Invite 3200m 11:07.15 1st · 1st on team 114.4 +4.1% PR SR RSR
2015-04-10 Okie Blanchard Invite 1600m 5:01.58 2nd · 2nd on team 117.1 +4.1% PR SR RSR

2014 TF 129.1

Laramie (WY) · Grade 8

Date Meet Event Result Place Ratingi Difficultyi PR/SR Flags
2014-05-03 Wheatland Middle School Track Meet hj NH +3.0%
2014-05-03 Wheatland Middle School Track Meet 800m 2:31.31 3rd · 2nd on team 123.4 +3.0% PR R SR RSR
2014-05-03 Wheatland Middle School Track Meet 1600m 5:08.36 1st · 1st on team 134.8 +3.0% PR ★R SR RSR